Time;durP1;ratioP1;P1;durP2;ratioP2;P2;SDS_P1;SDS_P2;PMS_P1;PMS_P2;Temp;Humidity;BMP_temperature;BMP_pressure;BME280_temperature;BME280_humidity;BME280_pressure;Samples;Min_cycle;Max_cycle;Signal;HPM_P1;HPM_P2
2022/01/30 00:01:26;;;;;;;18.17;1.83;;;5.80;99.90;;;;;;4120613;28;20034;-82
2022/01/30 00:03:28;;;;;;;27.13;3.97;;;6.60;99.90;;;;;;4125793;28;20073;-83
2022/01/30 00:05:30;;;;;;;13.15;2.10;;;6.10;99.90;;;;;;4116884;28;20511;-83
2022/01/30 00:07:31;;;;;;;19.15;3.08;;;5.80;99.90;;;;;;4124401;28;20146;-82
2022/01/30 00:09:32;;;;;;;23.98;3.00;;;6.90;99.90;;;;;;4118600;28;20038;-83
2022/01/30 00:11:36;;;;;;;17.05;2.15;;;6.60;99.90;;;;;;4128365;28;20084;-85
2022/01/30 00:13:37;;;;;;;10.00;1.95;;;6.70;99.90;;;;;;4125775;28;20077;-82
2022/01/30 00:15:46;;;;;;;15.20;1.70;;;6.60;99.90;;;;;;4116770;28;20404;-82
2022/01/30 00:17:53;;;;;;;13.90;2.50;;;5.60;99.90;;;;;;4131571;28;20506;-82
2022/01/30 00:20:00;;;;;;;15.23;1.80;;;6.00;99.90;;;;;;4123899;28;20495;-82
2022/01/30 00:22:52;;;;;;;10.70;2.00;;;6.00;99.90;;;;;;4103299;28;20492;-82
2022/01/30 00:25:13;;;;;;;5.15;0.80;;;5.70;99.90;;;;;;4114277;28;20049;-82
2022/01/30 00:26:46;;;;;;;4.03;0.80;;;5.50;99.90;;;;;;4115432;28;20492;-81
2022/01/30 00:28:47;;;;;;;8.70;1.23;;;5.90;99.90;;;;;;4126497;28;20047;-82
2022/01/30 00:30:48;;;;;;;8.07;1.23;;;5.60;99.90;;;;;;4109017;28;20057;-82
2022/01/30 00:32:50;;;;;;;8.68;1.48;;;5.60;99.90;;;;;;4121417;28;20074;-82
2022/01/30 00:34:51;;;;;;;7.97;0.68;;;;;;;;;;4127515;28;20207;-82
2022/01/30 00:36:52;;;;;;;15.52;1.55;;;6.40;99.90;;;;;;4121098;28;20664;-82
2022/01/30 00:38:54;;;;;;;5.78;1.30;;;;;;;;;;4120931;28;20054;-82
2022/01/30 00:40:54;;;;;;;8.65;1.98;;;5.50;99.90;;;;;;4123676;28;20050;-82
2022/01/30 00:42:55;;;;;;;15.07;2.33;;;5.50;99.90;;;;;;4125524;28;20130;-82
2022/01/30 00:44:56;;;;;;;10.43;2.05;;;5.50;99.90;;;;;;4122325;28;20058;-81
2022/01/30 00:46:58;;;;;;;7.43;2.35;;;5.40;99.90;;;;;;4122352;28;20043;-82
2022/01/30 00:48:59;;;;;;;13.98;3.45;;;5.40;99.90;;;;;;4118790;28;20073;-82
2022/01/30 00:51:00;;;;;;;12.50;3.17;;;5.30;99.90;;;;;;4119751;28;20053;-82
2022/01/30 00:53:01;;;;;;;14.73;1.33;;;5.30;99.90;;;;;;4121463;28;20051;-82
2022/01/30 00:55:03;;;;;;;11.98;2.17;;;6.00;99.90;;;;;;4119649;28;20381;-82
2022/01/30 00:57:04;;;;;;;17.17;1.98;;;5.20;99.90;;;;;;4118641;28;20263;-82
2022/01/30 00:59:05;;;;;;;22.25;1.98;;;5.20;99.90;;;;;;4125618;28;20039;-82
2022/01/30 01:01:07;;;;;;;21.38;2.20;;;5.20;99.90;;;;;;4120048;28;20563;-82
2022/01/30 01:03:07;;;;;;;32.80;3.88;;;5.20;99.90;;;;;;4125632;28;20042;-82
2022/01/30 01:05:08;;;;;;;17.45;2.63;;;5.50;99.90;;;;;;4120547;28;20130;-82
2022/01/30 01:07:15;;;;;;;19.00;2.92;;;6.30;99.90;;;;;;4123621;28;20046;-82
2022/01/30 01:09:20;;;;;;;19.23;3.50;;;6.00;99.90;;;;;;4104442;28;20054;-82
2022/01/30 01:24:41;;;;;;;17.80;2.95;;;6.10;99.90;;;;;;4129135;28;20043;-82
2022/01/30 01:26:42;;;;;;;19.90;3.33;;;5.50;99.90;;;;;;4128813;28;20042;-82
2022/01/30 01:28:44;;;;;;;25.02;2.60;;;5.60;99.90;;;;;;4121640;28;20136;-81
2022/01/30 01:30:45;;;;;;;17.83;3.08;;;6.00;99.90;;;;;;4117821;28;20055;-82
2022/01/30 01:32:46;;;;;;;22.73;2.83;;;5.50;99.90;;;;;;4128837;28;20149;-82
2022/01/30 01:34:47;;;;;;;25.58;4.72;;;5.80;99.90;;;;;;4117453;28;20059;-81
2022/01/30 01:36:48;;;;;;;20.27;3.33;;;5.50;99.90;;;;;;4120873;28;20070;-81
2022/01/30 01:38:49;;;;;;;15.75;2.05;;;6.30;99.90;;;;;;4116895;28;20047;-81
2022/01/30 01:40:53;;;;;;;23.17;4.82;;;6.20;99.90;;;;;;4130005;28;20046;-82
2022/01/30 01:42:55;;;;;;;13.13;2.67;;;5.90;99.90;;;;;;4116941;28;20057;-82
2022/01/30 01:44:57;;;;;;;26.65;4.10;;;6.40;99.90;;;;;;4128677;28;20058;-81
2022/01/30 01:47:00;;;;;;;19.70;2.47;;;5.50;99.90;;;;;;4129824;28;20129;-81
2022/01/30 01:49:01;;;;;;;20.27;4.35;;;5.50;99.90;;;;;;4118547;28;20051;-81
2022/01/30 01:51:13;;;;;;;20.25;2.45;;;5.50;99.90;;;;;;4119061;28;20065;-81
2022/01/30 01:53:21;;;;;;;26.77;2.38;;;5.40;99.90;;;;;;4120093;28;20042;-81
2022/01/30 01:55:22;;;;;;;21.35;2.63;;;5.30;99.90;;;;;;4105923;28;20057;-81
2022/01/30 01:57:24;;;;;;;20.55;4.85;;;5.30;99.90;;;;;;4125776;28;20557;-81
2022/01/30 01:59:25;;;;;;;12.57;2.45;;;5.90;99.90;;;;;;4131834;28;20053;-81
2022/01/30 02:01:26;;;;;;;31.13;4.07;;;5.30;99.90;;;;;;4121103;28;20418;-81
2022/01/30 02:03:27;;;;;;;22.17;3.50;;;5.20;99.90;;;;;;4117722;28;20050;-81
2022/01/30 02:05:33;;;;;;;15.65;3.72;;;6.00;99.90;;;;;;4120537;28;20050;-82
2022/01/30 02:09:48;;;;;;;12.13;2.97;;;5.20;99.90;;;;;;4120765;28;20084;-81
2022/01/30 02:11:49;;;;;;;21.73;3.85;;;5.20;99.90;;;;;;4120778;28;20042;-82
2022/01/30 02:25:37;;;;;;;;;;;5.60;99.90;;;;;;4124421;28;20134;-82
2022/01/30 02:27:39;;;;;;;16.73;2.28;;;5.60;99.90;;;;;;4127256;28;20327;-82
2022/01/30 02:29:40;;;;;;;18.27;2.83;;;5.60;99.90;;;;;;4129154;28;20134;-82
2022/01/30 02:31:42;;;;;;;17.67;3.55;;;5.70;99.90;;;;;;4116893;28;20089;-81
2022/01/30 02:33:44;;;;;;;16.27;2.45;;;5.60;99.90;;;;;;4129246;28;20120;-82
2022/01/30 02:35:45;;;;;;;24.83;3.03;;;6.30;99.90;;;;;;4114854;28;20046;-81
2022/01/30 02:37:47;;;;;;;23.00;3.35;;;5.60;99.90;;;;;;4120723;28;20039;-81
2022/01/30 02:39:48;;;;;;;25.80;2.83;;;5.50;99.90;;;;;;4119023;28;20486;-82
2022/01/30 02:41:50;;;;;;;16.95;2.83;;;5.50;99.90;;;;;;4128489;28;20050;-81
2022/01/30 02:44:18;;;;;;;29.52;3.08;;;5.50;99.90;;;;;;4118898;28;20141;-81
2022/01/30 02:46:28;;;;;;;26.40;3.28;;;5.50;99.90;;;;;;4121061;28;20176;-82
2022/01/30 02:48:48;;;;;;;20.13;3.35;;;5.40;99.90;;;;;;4118837;28;20055;-81
2022/01/30 02:50:56;;;;;;;27.20;3.33;;;5.40;99.90;;;;;;4120479;28;20046;-81
2022/01/30 02:52:57;;;;;;;22.98;2.83;;;5.50;99.90;;;;;;4119353;28;20098;-81
2022/01/30 02:54:58;;;;;;;32.58;4.15;;;5.40;99.90;;;;;;4138287;28;20050;-81
2022/01/30 02:56:59;;;;;;;30.15;3.58;;;6.30;99.90;;;;;;4124843;28;20599;-82
2022/01/30 02:59:00;;;;;;;23.40;4.47;;;5.40;99.90;;;;;;4125849;28;20133;-82
2022/01/30 03:01:01;;;;;;;26.75;4.10;;;5.40;99.90;;;;;;4107592;28;20047;-81
2022/01/30 03:03:02;;;;;;;25.30;4.15;;;5.50;99.90;;;;;;4106104;28;20046;-82
2022/01/30 03:05:04;;;;;;;29.45;4.20;;;5.50;99.90;;;;;;4110002;28;20060;-81
2022/01/30 03:07:05;;;;;;;37.75;4.40;;;5.60;99.90;;;;;;4118257;28;20547;-81
2022/01/30 03:09:09;;;;;;;20.17;3.45;;;6.00;99.90;;;;;;4121021;28;20046;-81
2022/01/30 03:11:10;;;;;;;17.35;3.65;;;6.30;99.90;;;;;;4125670;28;20053;-81
2022/01/30 03:13:10;;;;;;;24.38;5.43;;;5.80;99.90;;;;;;4109638;28;20052;-81
2022/01/30 03:15:11;;;;;;;26.92;3.78;;;5.80;99.90;;;;;;4121325;28;20038;-81
2022/01/30 03:17:12;;;;;;;25.95;3.42;;;6.40;99.90;;;;;;4124981;28;20043;-81
2022/01/30 03:19:15;;;;;;;22.98;4.47;;;5.80;99.90;;;;;;4119722;28;20364;-81
2022/01/30 03:21:16;;;;;;;23.02;3.00;;;5.90;99.90;;;;;;4119305;28;20089;-81
2022/01/30 03:23:17;;;;;;;25.50;3.92;;;5.90;99.90;;;;;;4117994;28;20050;-81
2022/01/30 03:25:18;;;;;;;19.48;3.30;;;5.90;99.90;;;;;;4122290;28;20113;-81
2022/01/30 03:27:19;;;;;;;24.67;4.50;;;5.90;99.90;;;;;;4123364;28;20050;-81
2022/01/30 03:29:19;;;;;;;22.77;3.08;;;6.40;99.90;;;;;;4119410;28;20039;-82
2022/01/30 03:31:21;;;;;;;32.25;4.05;;;6.00;99.90;;;;;;4136205;28;20057;-81
2022/01/30 03:33:22;;;;;;;25.33;3.97;;;6.50;99.90;;;;;;4123429;28;20053;-81
2022/01/30 03:35:23;;;;;;;22.17;3.13;;;5.90;99.90;;;;;;4117970;28;20138;-81
2022/01/30 03:37:24;;;;;;;22.45;3.08;;;6.20;99.90;;;;;;4129748;28;20042;-81
2022/01/30 03:39:25;;;;;;;26.83;3.67;;;5.90;99.90;;;;;;4141475;28;20458;-81
2022/01/30 03:41:26;;;;;;;28.63;4.78;;;5.90;99.90;;;;;;4135688;28;20034;-81
2022/01/30 03:43:27;;;;;;;26.20;3.58;;;5.90;99.90;;;;;;4119233;28;20407;-81
2022/01/30 03:45:28;;;;;;;23.13;3.97;;;5.90;99.90;;;;;;4142502;28;20121;-81
2022/01/30 03:47:29;;;;;;;20.02;4.10;;;5.80;99.90;;;;;;4119866;28;20053;-81
2022/01/30 03:49:29;;;;;;;26.10;3.40;;;5.80;99.90;;;;;;4125392;28;20046;-81
2022/01/30 03:51:30;;;;;;;35.22;3.90;;;6.00;99.90;;;;;;4101600;28;20055;-81
2022/01/30 03:53:32;;;;;;;22.00;3.53;;;5.70;99.90;;;;;;4135693;28;20080;-81
2022/01/30 03:55:34;;;;;;;29.52;3.30;;;5.70;99.90;;;;;;4118128;28;20043;-81
2022/01/30 03:57:35;;;;;;;22.70;2.53;;;5.70;99.90;;;;;;4138137;28;20117;-81
2022/01/30 03:59:37;;;;;;;33.13;4.88;;;5.70;99.90;;;;;;4141886;28;20503;-81
2022/01/30 04:01:38;;;;;;;35.80;5.60;;;5.70;99.90;;;;;;4108098;28;20043;-81
2022/01/30 04:03:39;;;;;;;29.65;3.58;;;6.00;99.90;;;;;;4123558;28;20042;-81
2022/01/30 04:05:40;;;;;;;35.13;5.32;;;5.70;99.90;;;;;;4109756;28;20051;-81
2022/01/30 04:07:41;;;;;;;24.58;4.95;;;5.70;99.90;;;;;;4138824;28;20046;-81
2022/01/30 04:09:44;;;;;;;24.33;3.35;;;6.30;99.90;;;;;;4121792;28;20042;-81
2022/01/30 04:11:45;;;;;;;33.17;5.70;;;5.70;99.90;;;;;;4128221;28;20047;-81
2022/01/30 04:13:47;;;;;;;31.58;4.32;;;5.70;99.90;;;;;;4121243;28;20043;-81
2022/01/30 04:15:48;;;;;;;29.80;4.00;;;5.70;99.90;;;;;;4102918;28;20051;-81
2022/01/30 04:17:48;;;;;;;40.70;5.68;;;5.70;99.90;;;;;;4137937;28;20457;-81
2022/01/30 04:19:50;;;;;;;30.63;3.55;;;5.70;99.90;;;;;;4120373;28;20047;-81
2022/01/30 04:21:51;;;;;;;32.85;5.57;;;5.60;99.90;;;;;;4120494;28;20046;-81
2022/01/30 04:23:52;;;;;;;30.73;3.88;;;5.70;99.90;;;;;;4112137;28;20483;-81
2022/01/30 04:25:52;;;;;;;39.00;4.82;;;6.40;99.90;;;;;;4120859;28;20046;-81
2022/01/30 04:27:54;;;;;;;36.08;4.00;;;5.60;99.90;;;;;;4137425;28;20080;-81
2022/01/30 04:29:55;;;;;;;32.42;4.15;;;5.70;99.90;;;;;;4104017;28;20070;-81
2022/01/30 04:31:56;;;;;;;29.45;4.15;;;5.70;99.90;;;;;;4140875;28;20042;-81
2022/01/30 04:33:57;;;;;;;35.53;3.03;;;5.70;99.90;;;;;;4137496;28;20066;-82
2022/01/30 04:36:04;;;;;;;32.47;4.13;;;5.70;99.90;;;;;;4137694;28;20042;-81
2022/01/30 04:54:09;;;;;;;28.80;5.03;;;5.90;99.90;;;;;;4145597;28;20053;-81
2022/01/30 04:56:39;;;;;;;32.35;4.03;;;5.90;99.90;;;;;;4126507;28;20125;-81
2022/01/30 04:58:27;;;;;;;26.50;2.85;;;5.90;99.90;;;;;;4137941;28;20096;-81
2022/01/30 05:02:46;;;;;;;30.48;4.13;;;5.90;99.90;;;;;;4137995;28;20049;-81
2022/01/30 05:05:03;;;;;;;26.35;3.80;;;5.90;99.90;;;;;;4137580;28;20049;-81
2022/01/30 05:09:06;;;;;;;15.15;3.60;;;5.80;99.90;;;;;;4137591;28;20057;-81
2022/01/30 05:11:08;;;;;;;28.05;5.10;;;5.80;99.90;;;;;;4120258;28;20051;-81
2022/01/30 05:13:14;;;;;;;39.20;5.88;;;5.80;99.90;;;;;;4136664;28;20495;-81
2022/01/30 05:15:17;;;;;;;46.38;5.55;;;5.80;99.90;;;;;;4137101;28;20054;-81
2022/01/30 05:17:18;;;;;;;30.10;5.15;;;5.80;99.90;;;;;;4137684;28;20402;-81
2022/01/30 05:19:19;;;;;;;30.48;3.40;;;5.80;99.90;;;;;;4137181;28;20084;-81
2022/01/30 05:21:21;;;;;;;22.33;3.28;;;5.90;99.90;;;;;;4137447;28;20038;-81
2022/01/30 05:23:22;;;;;;;28.77;3.58;;;5.90;99.90;;;;;;4136917;28;20549;-81
2022/01/30 05:25:23;;;;;;;36.97;3.85;;;5.90;99.90;;;;;;4137140;28;20129;-81
2022/01/30 05:27:24;;;;;;;27.75;4.20;;;5.90;99.90;;;;;;4139004;28;20051;-81
2022/01/30 05:29:25;;;;;;;28.77;3.83;;;5.90;99.90;;;;;;4119403;28;20463;-81
2022/01/30 05:31:26;;;;;;;24.58;3.63;;;5.80;99.90;;;;;;4126092;28;20050;-81
2022/01/30 05:33:26;;;;;;;36.33;6.57;;;5.80;99.90;;;;;;4136567;28;20440;-81
2022/01/30 05:35:27;;;;;;;28.95;3.72;;;5.80;99.90;;;;;;4136691;28;20073;-81
2022/01/30 05:37:29;;;;;;;40.78;4.25;;;5.80;99.90;;;;;;4140343;28;20038;-81
2022/01/30 05:39:29;;;;;;;31.75;4.68;;;5.80;99.90;;;;;;4141506;28;20041;-81
2022/01/30 05:41:31;;;;;;;33.85;4.78;;;5.80;99.90;;;;;;4138539;28;20038;-81
2022/01/30 05:43:33;;;;;;;27.52;3.33;;;5.70;99.90;;;;;;4144401;28;20494;-81
2022/01/30 05:45:42;;;;;;;19.92;2.60;;;5.50;99.90;;;;;;4142981;28;20109;-81
2022/01/30 05:47:53;;;;;;;21.65;4.30;;;5.40;99.90;;;;;;4143682;28;20049;-80
2022/01/30 05:49:54;;;;;;;39.90;5.22;;;5.30;99.90;;;;;;4141481;28;20042;-80
2022/01/30 05:51:54;;;;;;;34.15;5.90;;;5.20;99.90;;;;;;4162890;28;20042;-80
2022/01/30 05:53:55;;;;;;;38.35;5.28;;;5.20;99.90;;;;;;4154225;28;20026;-83
2022/01/30 05:55:56;;;;;;;33.85;3.53;;;5.10;99.90;;;;;;4139198;28;20054;-80
2022/01/30 05:57:57;;;;;;;38.35;5.30;;;5.10;99.90;;;;;;4122275;28;20096;-81
2022/01/30 05:59:57;;;;;;;53.95;5.75;;;5.10;99.90;;;;;;4137078;28;20049;-81
2022/01/30 06:01:58;;;;;;;23.08;4.95;;;5.00;99.90;;;;;;4142188;28;20479;-81
2022/01/30 06:03:59;;;;;;;21.60;3.78;;;5.00;99.90;;;;;;4146763;28;20042;-81
2022/01/30 06:06:01;;;;;;;16.83;4.85;;;5.20;99.90;;;;;;4121838;28;20500;-81
2022/01/30 06:08:11;;;;;;;35.38;5.90;;;5.00;99.90;;;;;;4103574;28;20520;-81
2022/01/30 06:10:12;;;;;;;22.75;3.05;;;5.00;99.90;;;;;;4144900;28;20490;-82
2022/01/30 06:12:13;;;;;;;32.03;4.13;;;4.90;99.90;;;;;;4120645;28;20051;-81
2022/01/30 06:14:14;;;;;;;30.27;4.80;;;4.90;99.90;;;;;;4129718;28;20069;-81
2022/01/30 06:16:16;;;;;;;36.45;6.15;;;4.90;99.90;;;;;;4144503;28;20069;-82
2022/01/30 06:18:17;;;;;;;31.88;4.57;;;5.50;99.90;;;;;;4120962;28;20061;-81
2022/01/30 06:20:17;;;;;;;21.88;3.22;;;5.00;99.90;;;;;;4136295;28;20204;-81
2022/01/30 06:22:19;;;;;;;24.02;4.85;;;5.10;99.90;;;;;;4125234;28;20042;-81
2022/01/30 06:24:20;;;;;;;29.02;4.70;;;5.20;99.90;;;;;;4144863;28;20045;-81
2022/01/30 06:26:21;;;;;;;42.63;4.40;;;5.20;99.90;;;;;;4125635;28;20117;-81
2022/01/30 06:28:22;;;;;;;23.90;4.20;;;6.10;99.90;;;;;;4108449;28;20057;-81
2022/01/30 06:30:23;;;;;;;15.30;3.63;;;5.30;99.90;;;;;;4138472;28;20074;-81
2022/01/30 06:32:23;;;;;;;24.05;3.58;;;5.30;99.90;;;;;;4143992;28;20049;-81
2022/01/30 06:34:25;;;;;;;23.48;5.40;;;5.40;99.90;;;;;;4139215;28;20045;-81
2022/01/30 06:36:26;;;;;;;31.02;4.85;;;5.40;99.90;;;;;;4143589;28;20100;-81
2022/01/30 06:38:26;;;;;;;30.25;5.80;;;5.70;99.90;;;;;;4139074;28;20042;-80
2022/01/30 06:40:27;;;;;;;24.73;3.97;;;5.40;99.90;;;;;;4139833;28;20092;-81
2022/01/30 06:42:32;;;;;;;21.17;3.78;;;5.50;99.90;;;;;;4139291;28;20450;-81
2022/01/30 06:44:33;;;;;;;29.35;3.65;;;5.40;99.90;;;;;;4136119;28;20073;-81
2022/01/30 06:46:34;;;;;;;26.92;4.82;;;6.20;99.90;;;;;;4117916;28;20035;-81
2022/01/30 06:48:34;;;;;;;28.35;4.93;;;5.50;99.90;;;;;;4125993;28;20051;-81
2022/01/30 06:50:35;;;;;;;31.25;6.25;;;5.50;99.90;;;;;;4144635;28;20042;-81
2022/01/30 06:52:39;;;;;;;29.33;4.53;;;5.50;99.90;;;;;;4144003;28;20037;-80
2022/01/30 06:54:39;;;;;;;29.83;4.72;;;5.50;99.90;;;;;;4139131;28;20107;-81
2022/01/30 06:56:40;;;;;;;35.63;4.35;;;5.50;99.90;;;;;;4135699;28;20065;-80
2022/01/30 06:58:41;;;;;;;33.55;4.10;;;5.50;99.90;;;;;;4140027;28;20096;-81
2022/01/30 07:00:41;;;;;;;32.20;4.30;;;5.50;99.90;;;;;;4139326;28;20042;-81
2022/01/30 07:02:42;;;;;;;37.47;3.90;;;5.50;99.90;;;;;;4135368;28;20056;-80
2022/01/30 07:04:43;;;;;;;30.38;4.70;;;5.50;99.90;;;;;;4118151;28;20527;-81
2022/01/30 07:06:43;;;;;;;32.38;4.45;;;5.50;99.90;;;;;;4135449;28;20042;-81
2022/01/30 07:08:45;;;;;;;28.65;3.47;;;5.50;99.90;;;;;;4135196;28;20570;-81
2022/01/30 07:10:45;;;;;;;27.77;4.03;;;5.50;99.90;;;;;;4134782;28;20052;-81
2022/01/30 07:12:47;;;;;;;33.53;4.90;;;5.50;99.90;;;;;;4135053;28;20444;-80
2022/01/30 07:14:47;;;;;;;27.95;4.50;;;5.50;99.90;;;;;;4121596;28;20046;-81
2022/01/30 07:16:48;;;;;;;33.30;4.95;;;5.40;99.90;;;;;;4120242;28;20050;-81
2022/01/30 07:18:49;;;;;;;29.33;4.20;;;5.40;99.90;;;;;;4135212;28;20082;-81
2022/01/30 07:20:50;;;;;;;26.88;3.78;;;5.40;99.90;;;;;;4135705;28;20049;-81
2022/01/30 07:22:51;;;;;;;32.78;3.33;;;5.80;99.90;;;;;;4117683;28;20100;-81
2022/01/30 07:24:51;;;;;;;26.52;3.97;;;5.50;99.90;;;;;;4137699;28;20088;-81
2022/01/30 07:26:52;;;;;;;19.50;3.22;;;6.10;99.90;;;;;;4140236;28;20050;-81
2022/01/30 07:28:53;;;;;;;28.73;4.63;;;6.00;99.90;;;;;;4134232;28;20403;-81
2022/01/30 07:30:54;;;;;;;27.95;4.82;;;5.50;99.90;;;;;;4118986;28;20114;-81
2022/01/30 07:32:55;;;;;;;37.17;3.97;;;5.50;99.90;;;;;;4133499;28;20057;-81
2022/01/30 07:34:56;;;;;;;24.65;3.55;;;5.50;99.90;;;;;;4134498;28;20076;-81
2022/01/30 07:36:58;;;;;;;20.58;3.28;;;5.50;99.90;;;;;;4119810;28;20229;-81
2022/01/30 07:39:00;;;;;;;27.08;3.72;;;5.50;99.90;;;;;;4144491;28;20047;-82
2022/01/30 07:41:01;;;;;;;26.35;4.25;;;5.50;99.90;;;;;;4137233;28;20057;-81
2022/01/30 07:43:01;;;;;;;29.20;3.95;;;5.50;99.80;;;;;;4141151;28;20046;-81
2022/01/30 07:45:04;;;;;;;25.08;3.90;;;5.50;99.90;;;;;;4135503;28;20042;-81
2022/01/30 07:47:05;;;;;;;29.38;4.18;;;5.50;99.70;;;;;;4131797;28;20971;-81
2022/01/30 07:49:06;;;;;;;26.05;3.38;;;5.40;99.70;;;;;;4119162;28;20054;-81
2022/01/30 07:51:08;;;;;;;25.48;2.90;;;5.50;99.80;;;;;;4137463;28;20038;-81
2022/01/30 07:53:08;;;;;;;28.42;4.55;;;5.50;99.60;;;;;;4131378;28;20125;-82
2022/01/30 07:55:09;;;;;;;25.50;3.60;;;5.50;99.60;;;;;;4136636;28;20042;-82
2022/01/30 07:57:10;;;;;;;22.75;2.92;;;5.50;99.60;;;;;;4130555;28;20388;-81
2022/01/30 07:59:11;;;;;;;16.48;2.60;;;6.30;99.80;;;;;;4148438;28;20120;-81
2022/01/30 08:01:12;;;;;;;33.83;4.53;;;5.50;99.40;;;;;;4148153;28;20041;-81
2022/01/30 08:03:12;;;;;;;19.08;3.90;;;5.50;99.50;;;;;;4137579;28;20177;-81
2022/01/30 08:05:13;;;;;;;29.48;3.55;;;5.50;99.50;;;;;;4146220;28;20034;-81
2022/01/30 08:07:14;;;;;;;24.20;3.05;;;5.50;99.60;;;;;;4141595;28;20050;-81
2022/01/30 08:09:14;;;;;;;32.75;5.40;;;5.50;99.70;;;;;;4131468;28;20043;-81
2022/01/30 08:11:15;;;;;;;33.17;4.15;;;5.50;99.60;;;;;;4131385;28;20042;-81
2022/01/30 08:13:19;;;;;;;28.38;4.85;;;5.50;99.80;;;;;;4137511;28;20038;-81
2022/01/30 08:15:22;;;;;;;31.17;4.70;;;5.50;99.70;;;;;;4130636;28;20050;-80
2022/01/30 08:17:23;;;;;;;28.02;6.38;;;5.60;99.60;;;;;;4131134;28;20043;-81
2022/01/30 08:19:25;;;;;;;29.88;4.57;;;5.60;99.70;;;;;;4130582;28;20050;-81
2022/01/30 08:21:26;;;;;;;32.38;4.65;;;5.60;99.70;;;;;;4147387;28;20046;-81
2022/01/30 08:23:28;;;;;;;30.77;6.53;;;5.60;99.50;;;;;;4138294;28;20133;-81
2022/01/30 08:25:29;;;;;;;29.50;4.22;;;5.60;99.40;;;;;;4122164;28;20121;-81
2022/01/30 08:27:30;;;;;;;23.38;3.72;;;5.60;99.40;;;;;;4144370;28;20046;-81
2022/01/30 08:29:30;;;;;;;23.45;4.25;;;5.60;99.20;;;;;;4131713;28;20088;-81
2022/01/30 08:31:31;;;;;;;30.65;3.80;;;5.60;99.20;;;;;;4131059;28;20090;-81
2022/01/30 08:33:32;;;;;;;24.80;3.55;;;5.80;99.20;;;;;;4114669;28;20054;-82
2022/01/30 08:35:33;;;;;;;18.08;3.13;;;5.60;98.90;;;;;;4131552;28;20057;-81
2022/01/30 08:37:35;;;;;;;29.38;4.85;;;6.20;99.10;;;;;;4125242;28;20459;-81
2022/01/30 08:39:36;;;;;;;19.13;3.67;;;5.80;98.50;;;;;;4147082;28;20115;-82
2022/01/30 08:41:36;;;;;;;22.40;2.90;;;6.10;98.20;;;;;;4147786;28;20605;-81
2022/01/30 08:43:37;;;;;;;19.52;3.42;;;6.40;97.10;;;;;;4138143;28;20058;-81
2022/01/30 08:45:38;;;;;;;20.45;4.53;;;6.30;96.90;;;;;;4131295;28;20050;-81
2022/01/30 08:47:43;;;;;;;20.33;2.85;;;6.30;96.80;;;;;;4132414;28;20358;-82
2022/01/30 08:49:44;;;;;;;34.15;5.22;;;6.20;97.00;;;;;;4117126;28;20129;-82
2022/01/30 08:51:44;;;;;;;33.20;4.03;;;6.10;96.80;;;;;;4134257;28;20132;-81
2022/01/30 08:53:45;;;;;;;23.42;3.35;;;6.40;96.90;;;;;;4117112;28;20057;-81
2022/01/30 08:55:46;;;;;;;29.67;3.25;;;6.00;97.10;;;;;;4133629;28;20054;-81
2022/01/30 08:57:49;;;;;;;37.40;3.78;;;6.00;97.50;;;;;;4134418;28;20042;-81
2022/01/30 08:59:51;;;;;;;26.95;4.03;;;5.90;97.60;;;;;;4119694;28;20049;-82
2022/01/30 09:01:51;;;;;;;41.17;4.03;;;5.90;97.80;;;;;;4138829;28;20081;-81
2022/01/30 09:03:52;;;;;;;24.35;4.65;;;7.10;98.10;;;;;;4142421;28;20050;-82
2022/01/30 09:05:52;;;;;;;25.27;4.50;;;6.30;97.60;;;;;;4134614;28;20088;-81
2022/01/30 09:07:53;;;;;;;28.30;3.92;;;6.60;97.40;;;;;;4143674;28;20052;-82
2022/01/30 09:09:54;;;;;;;28.85;4.40;;;7.00;96.70;;;;;;4149887;28;20121;-82
2022/01/30 09:11:58;;;;;;;22.30;3.78;;;7.30;96.30;;;;;;4149902;28;20045;-81
2022/01/30 09:13:58;;;;;;;24.63;4.43;;;7.70;96.20;;;;;;4141423;28;20061;-81
2022/01/30 09:16:00;;;;;;;35.17;5.43;;;7.10;96.20;;;;;;4104021;28;20027;-82
2022/01/30 09:18:07;;;;;;;29.02;3.75;;;6.90;96.40;;;;;;4133962;28;20050;-81
2022/01/30 09:20:08;;;;;;;26.55;3.25;;;6.70;96.50;;;;;;4147419;28;20053;-82
2022/01/30 09:22:11;;;;;;;31.38;4.57;;;6.60;96.70;;;;;;4124302;28;20435;-83
2022/01/30 09:24:11;;;;;;;15.88;3.42;;;6.60;96.80;;;;;;4127240;28;20058;-82
2022/01/30 09:26:12;;;;;;;24.02;3.38;;;6.50;97.00;;;;;;4116348;28;20061;-82
2022/01/30 09:28:13;;;;;;;26.92;4.63;;;7.30;97.40;;;;;;4150004;28;20088;-82
2022/01/30 09:30:14;;;;;;;29.38;4.68;;;6.40;97.00;;;;;;4132289;28;20046;-82
2022/01/30 09:32:16;;;;;;;28.40;3.22;;;;;;;;;;4150472;28;20042;-82
2022/01/30 09:34:17;;;;;;;22.08;3.67;;;;;;;;;;4131150;28;20538;-82
2022/01/30 09:36:18;;;;;;;24.95;3.22;;;;;;;;;;4132971;28;20054;-82
2022/01/30 09:38:19;;;;;;;23.02;3.03;;;;;;;;;;4132499;28;20442;-82
2022/01/30 09:40:20;;;;;;;34.15;5.78;;;;;;;;;;4116133;28;20149;-82
2022/01/30 09:42:25;;;;;;;26.67;3.55;;;6.80;96.80;;;;;;4117035;28;20058;-82
2022/01/30 09:44:26;;;;;;;21.38;4.47;;;;;;;;;;4119423;28;20051;-82
2022/01/30 09:46:29;;;;;;;29.92;4.22;;;;;;;;;;4116316;28;20137;-82
2022/01/30 09:48:34;;;;;;;30.23;4.53;;;;;;;;;;4117186;28;20051;-82
2022/01/30 09:50:36;;;;;;;35.60;3.83;;;;;;;;;;4135779;28;20034;-82
2022/01/30 09:52:37;;;;;;;27.15;3.30;;;;;;;;;;4132460;28;20061;-83
2022/01/30 09:54:38;;;;;;;29.23;3.65;;;;;;;;;;4149929;28;20399;-82
2022/01/30 09:56:40;;;;;;;23.02;3.35;;;;;;;;;;4131993;28;20137;-82
2022/01/30 09:58:41;;;;;;;20.25;3.22;;;;;;;;;;4131521;28;20439;-82
2022/01/30 10:00:42;;;;;;;23.02;3.42;;;8.90;93.50;;;;;;4149239;28;20192;-82
2022/01/30 10:02:43;;;;;;;25.08;3.50;;;;;;;;;;4132144;28;20057;-82
2022/01/30 10:04:45;;;;;;;12.73;4.45;;;;;;;;;;4115791;28;20050;-82
2022/01/30 10:06:55;;;;;;;33.63;4.60;;;;;;;;;;4148559;28;20041;-83
2022/01/30 10:08:57;;;;;;;21.23;3.63;;;;;;;;;;4150212;28;20045;-82
2022/01/30 10:11:04;;;;;;;19.50;3.65;;;;;;;;;;4116957;28;20050;-82
2022/01/30 10:13:05;;;;;;;32.05;5.93;;;;;;;;;;4100473;28;20039;-82
2022/01/30 10:15:08;;;;;;;31.77;4.50;;;;;;;;;;4116295;28;20104;-82
2022/01/30 10:17:08;;;;;;;33.35;3.58;;;7.70;95.30;;;;;;4100647;29;20047;-83
2022/01/30 10:19:21;;;;;;;31.63;5.25;;;9.00;94.50;;;;;;4121126;28;20050;-83
2022/01/30 10:21:21;;;;;;;18.33;4.20;;;9.10;94.00;;;;;;4132038;28;20101;-83
2022/01/30 10:23:36;;;;;;;24.25;5.30;;;;;;;;;;4132101;28;20514;-83
2022/01/30 10:25:38;;;;;;;22.45;3.08;;;9.20;93.90;;;;;;4133296;28;20061;-82
2022/01/30 10:27:39;;;;;;;30.63;3.47;;;9.30;94.40;;;;;;4128359;28;20050;-83
2022/01/30 10:29:40;;;;;;;28.23;3.67;;;9.10;94.80;;;;;;4133711;28;20105;-83
2022/01/30 10:32:01;;;;;;;21.15;5.35;;;8.90;94.80;;;;;;4142597;28;20144;-83
2022/01/30 10:34:04;;;;;;;35.13;4.35;;;8.70;94.30;;;;;;4132134;28;20060;-83
2022/01/30 10:36:09;;;;;;;19.30;3.70;;;8.50;95.30;;;;;;4132500;28;20046;-83
2022/01/30 10:38:21;;;;;;;25.13;3.60;;;8.50;95.10;;;;;;4131437;28;20168;-83
2022/01/30 10:40:34;;;;;;;20.15;4.30;;;8.70;94.30;;;;;;4117436;28;20058;-83
2022/01/30 10:42:39;;;;;;;33.35;4.18;;;8.80;94.90;;;;;;4116098;28;20046;-83
2022/01/30 10:44:49;;;;;;;29.15;5.03;;;9.10;94.80;;;;;;4149612;28;20410;-83
2022/01/30 10:46:53;;;;;;;35.70;3.92;;;8.50;94.30;;;;;;4149207;28;20061;-82
2022/01/30 10:49:02;;;;;;;19.38;3.97;;;8.60;94.80;;;;;;4129351;28;20046;-83
2022/01/30 10:51:11;;;;;;;20.65;2.50;;;8.70;94.60;;;;;;4119123;28;20053;-84
2022/01/30 10:53:24;;;;;;;19.45;3.03;;;9.00;94.10;;;;;;4136333;28;20030;-83
2022/01/30 10:55:32;;;;;;;23.85;3.58;;;;;;;;;;4133160;28;20454;-83
2022/01/30 10:57:40;;;;;;;21.87;3.63;;;;;;;;;;4119474;28;20047;-83
2022/01/30 10:59:43;;;;;;;24.40;3.13;;;;;;;;;;4118948;28;20057;-83
2022/01/30 11:01:48;;;;;;;17.52;3.20;;;;;;;;;;4135709;28;20176;-83
2022/01/30 11:03:53;;;;;;;20.85;4.20;;;;;;;;;;4115695;28;20106;-83
2022/01/30 11:05:57;;;;;;;24.65;2.55;;;;;;;;;;4136455;28;20082;-83
2022/01/30 11:07:58;;;;;;;21.80;3.08;;;;;;;;;;4119160;28;20050;-83
2022/01/30 11:10:05;;;;;;;14.50;3.17;;;;;;;;;;4099960;28;20416;-83
2022/01/30 11:12:15;;;;;;;19.48;4.05;;;;;;;;;;4131809;28;20057;-82
2022/01/30 11:14:19;;;;;;;19.98;3.83;;;;;;;;;;4115316;28;20097;-83
2022/01/30 11:18:40;;;;;;;21.48;3.38;;;;;;;;;;4132715;28;20533;-84
2022/01/30 11:20:45;;;;;;;20.30;3.15;;;;;;;;;;4132147;28;20112;-84
2022/01/30 11:22:47;;;;;;;17.90;3.15;;;;;;;;;;4132376;28;20080;-83
2022/01/30 11:24:55;;;;;;;18.23;3.13;;;;;;;;;;4117733;28;20054;-83
2022/01/30 11:26:56;;;;;;;21.00;3.90;;;;;;;;;;4131525;28;20461;-83
2022/01/30 11:28:58;;;;;;;27.30;3.10;;;;;;;;;;4133540;28;20086;-84
2022/01/30 11:30:59;;;;;;;14.40;3.95;;;;;;;;;;4114731;28;20065;-83
2022/01/30 11:33:01;;;;;;;20.83;3.58;;;;;;;;;;4132416;28;20411;-83
2022/01/30 11:35:02;;;;;;;20.33;2.75;;;;;;;;;;4131210;28;20104;-84
2022/01/30 11:37:04;;;;;;;28.35;3.47;;;;;;;;;;4127571;28;20042;-83
2022/01/30 11:39:06;;;;;;;23.70;3.67;;;;;;;;;;4122440;28;20054;-83